createdAt,value
2024-03-25T00:01:42.792Z,98477.90
2024-03-25T00:04:13.931Z,98477.48
2024-03-25T00:06:44.812Z,98474.66
2024-03-25T00:09:15.656Z,98477.77
2024-03-25T00:11:46.548Z,98477.95
2024-03-25T00:14:17.528Z,98479.74
2024-03-25T00:16:48.248Z,98481.91
2024-03-25T00:19:19.433Z,98482.30
2024-03-25T00:21:50.187Z,98481.46
2024-03-25T00:24:20.953Z,98478.26
2024-03-25T00:26:51.665Z,98479.46
2024-03-25T00:29:22.588Z,98481.19
2024-03-25T00:31:53.415Z,98485.73
2024-03-25T00:34:24.392Z,98484.27
2024-03-25T00:36:55.394Z,98485.72
2024-03-25T00:39:27.186Z,98483.52
2024-03-25T00:41:58.087Z,98488.14
2024-03-25T00:44:28.836Z,98489.06
2024-03-25T00:46:59.710Z,98485.52
2024-03-25T00:49:31.002Z,98492.31
2024-03-25T00:52:01.764Z,98497.27
2024-03-25T00:54:33.603Z,98500.60
2024-03-25T00:57:04.876Z,98500.00
2024-03-25T00:59:36.205Z,98502.23
2024-03-25T01:02:07.882Z,98496.90
2024-03-25T01:04:38.771Z,98499.73
2024-03-25T01:07:09.571Z,98488.45
2024-03-25T01:09:40.430Z,98493.48
2024-03-25T01:12:11.350Z,98495.44
2024-03-25T01:14:42.518Z,98496.40
2024-03-25T01:17:13.841Z,98496.23
2024-03-25T01:19:45.095Z,98500.66
2024-03-25T01:22:15.843Z,98499.55
2024-03-25T01:24:47.018Z,98502.02
2024-03-25T01:27:17.767Z,98506.20
2024-03-25T01:29:48.529Z,98506.20
2024-03-25T01:32:19.640Z,98508.98
2024-03-25T01:34:50.938Z,98505.81
2024-03-25T01:37:21.683Z,98506.16
2024-03-25T01:39:52.663Z,98508.91
2024-03-25T01:42:23.475Z,98510.61
2024-03-25T01:44:54.881Z,98510.72
2024-03-25T01:47:25.710Z,98507.59
2024-03-25T01:49:57.590Z,98508.59
2024-03-25T01:52:30.307Z,98512.16
2024-03-25T01:55:04.619Z,98511.50
2024-03-25T01:57:35.703Z,98511.76
2024-03-25T02:00:09.233Z,98510.37
2024-03-25T02:02:44.968Z,98507.63
2024-03-25T02:05:16.880Z,98513.51
2024-03-25T02:07:48.196Z,98515.94
2024-03-25T02:10:19.337Z,98520.01
2024-03-25T02:12:51.323Z,98515.02
2024-03-25T02:15:23.167Z,98515.66
2024-03-25T02:17:53.873Z,98520.19
2024-03-25T02:20:24.703Z,98518.11
2024-03-25T02:22:55.867Z,98516.89
2024-03-25T02:25:27.747Z,98523.91
2024-03-25T02:27:58.585Z,98526.10
2024-03-25T02:30:29.839Z,98530.19
2024-03-25T02:33:00.569Z,98530.73
2024-03-25T02:35:32.170Z,98533.02
2024-03-25T02:38:04.195Z,98533.61
2024-03-25T02:40:35.496Z,98529.70
2024-03-25T02:43:08.147Z,98525.55
2024-03-25T02:45:39.240Z,98525.05
2024-03-25T02:48:10.458Z,98528.63
2024-03-25T02:50:41.369Z,98528.27
2024-03-25T02:53:12.486Z,98530.95
2024-03-25T02:55:43.340Z,98534.86
2024-03-25T02:58:14.122Z,98536.59
2024-03-25T03:00:44.878Z,98532.23
2024-03-25T03:03:15.694Z,98538.79
2024-03-25T03:05:46.627Z,98540.42
2024-03-25T03:08:17.275Z,98543.62
2024-03-25T03:10:48.036Z,98546.92
2024-03-25T03:13:18.788Z,98546.96
2024-03-25T03:15:49.684Z,98547.52
2024-03-25T03:18:20.369Z,98548.54
2024-03-25T03:20:51.389Z,98553.13
2024-03-25T03:23:22.204Z,98555.95
2024-03-25T03:25:53.703Z,98549.92
2024-03-25T03:28:24.512Z,98554.73
2024-03-25T03:30:55.301Z,98553.40
2024-03-25T03:33:26.121Z,98555.11
2024-03-25T03:35:57.621Z,98559.63
2024-03-25T03:38:28.404Z,98563.98
2024-03-25T03:41:04.713Z,98564.30
2024-03-25T03:43:35.566Z,98563.89
2024-03-25T03:46:07.086Z,98570.25
2024-03-25T03:48:39.096Z,98565.52
2024-03-25T03:51:10.466Z,98554.35
2024-03-25T03:53:41.522Z,98561.70
2024-03-25T03:56:12.372Z,98554.73
2024-03-25T03:58:43.202Z,98553.88
2024-03-25T04:01:20.508Z,98551.50
2024-03-25T04:03:51.509Z,98554.10
2024-03-25T04:06:22.457Z,98559.14
2024-03-25T04:08:53.192Z,98561.81
2024-03-25T04:11:23.918Z,98559.45
2024-03-25T04:13:54.624Z,98562.06
2024-03-25T04:16:25.360Z,98565.37
2024-03-25T04:18:57.612Z,98566.52
2024-03-25T04:21:28.369Z,98566.67
2024-03-25T04:23:59.012Z,98567.74
2024-03-25T04:26:29.826Z,98559.98
2024-03-25T04:29:00.684Z,98562.22
2024-03-25T04:31:31.444Z,98559.16
2024-03-25T04:34:02.286Z,98563.41
2024-03-25T04:36:33.053Z,98563.70
2024-03-25T04:39:04.782Z,98562.99
2024-03-25T04:41:35.900Z,98571.70
2024-03-25T04:44:06.894Z,98571.73
2024-03-25T04:46:37.680Z,98580.62
2024-03-25T04:49:08.677Z,98580.99
2024-03-25T04:51:39.526Z,98585.05
2024-03-25T04:54:10.206Z,98589.45
2024-03-25T04:56:41.574Z,98593.14
2024-03-25T04:59:12.499Z,98596.52
2024-03-25T05:01:43.263Z,98598.73
2024-03-25T05:04:13.998Z,98601.16
2024-03-25T05:06:44.844Z,98598.58
2024-03-25T05:09:17.319Z,98606.48
2024-03-25T05:11:48.107Z,98605.86
2024-03-25T05:14:18.876Z,98604.95
2024-03-25T05:16:50.417Z,98598.60
2024-03-25T05:19:21.391Z,98596.36
2024-03-25T05:21:52.099Z,98604.28
2024-03-25T05:24:23.189Z,98598.94
2024-03-25T05:26:53.895Z,98605.88
2024-03-25T05:29:25.473Z,98609.48
2024-03-25T05:32:03.265Z,98610.14
2024-03-25T05:34:33.938Z,98606.89
2024-03-25T05:37:04.668Z,98614.19
2024-03-25T05:39:35.379Z,98611.02
2024-03-25T05:42:07.670Z,98612.52
2024-03-25T05:44:38.632Z,98614.80
2024-03-25T05:47:09.408Z,98614.23
2024-03-25T05:49:40.337Z,98615.56
2024-03-25T05:52:11.204Z,98617.69
2024-03-25T05:54:42.004Z,98619.42
2024-03-25T05:57:12.758Z,98622.04
2024-03-25T05:59:43.476Z,98624.62
2024-03-25T06:02:14.793Z,98630.52
2024-03-25T06:04:45.500Z,98633.83
2024-03-25T06:07:16.379Z,98637.61
2024-03-25T06:09:47.905Z,98635.44
2024-03-25T06:12:18.680Z,98636.55
2024-03-25T06:14:50.493Z,98642.52
2024-03-25T06:17:21.300Z,98639.84
2024-03-25T06:19:53.287Z,98635.27
2024-03-25T06:22:24.408Z,98636.53
2024-03-25T06:24:55.219Z,98636.98
2024-03-25T06:27:25.920Z,98640.64
2024-03-25T06:30:16.700Z,98638.84
2024-03-25T06:33:02.065Z,98636.79
2024-03-25T06:35:32.803Z,98642.05
2024-03-25T06:38:03.655Z,98643.23
2024-03-25T06:40:34.476Z,98648.98
2024-03-25T06:43:05.930Z,98644.08
2024-03-25T06:45:36.609Z,98647.26
2024-03-25T06:48:09.326Z,98645.47
2024-03-25T06:50:40.146Z,98649.47
2024-03-25T06:53:11.023Z,98647.73
2024-03-25T06:55:42.062Z,98645.98
2024-03-25T06:58:12.713Z,98644.58
2024-03-25T07:00:43.789Z,98647.01
2024-03-25T07:03:14.680Z,98642.16
2024-03-25T07:05:47.920Z,98641.32
2024-03-25T07:08:20.110Z,98641.48
2024-03-25T07:10:50.988Z,98643.36
2024-03-25T07:13:22.298Z,98643.51
2024-03-25T07:15:54.996Z,98636.19
2024-03-25T07:18:26.029Z,98639.33
2024-03-25T07:20:56.776Z,98635.73
2024-03-25T07:23:28.039Z,98637.63
2024-03-25T07:25:58.774Z,98639.64
2024-03-25T07:28:30.303Z,98638.69
2024-03-25T07:31:02.140Z,98632.52
2024-03-25T07:33:33.026Z,98631.33
2024-03-25T07:36:05.729Z,98634.95
2024-03-25T07:38:36.668Z,98640.05
2024-03-25T07:41:08.229Z,98643.22
2024-03-25T07:43:39.628Z,98633.48
2024-03-25T07:46:10.423Z,98633.73
2024-03-25T07:48:41.311Z,98628.64
2024-03-25T07:51:12.122Z,98628.68
2024-03-25T07:53:43.533Z,98627.80
2024-03-25T07:56:14.905Z,98623.10
2024-03-25T07:58:45.697Z,98626.61
2024-03-25T08:01:16.835Z,98624.92
2024-03-25T08:03:47.716Z,98634.89
2024-03-25T08:06:18.569Z,98642.44
2024-03-25T08:08:49.693Z,98650.23
2024-03-25T08:11:20.973Z,98655.14
2024-03-25T08:13:51.953Z,98656.11
2024-03-25T08:16:22.694Z,98653.36
2024-03-25T08:18:53.517Z,98648.80
2024-03-25T08:21:24.999Z,98653.73
2024-03-25T08:23:56.181Z,98657.81
2024-03-25T08:26:27.078Z,98660.25
2024-03-25T08:28:57.788Z,98667.45
2024-03-25T08:31:28.818Z,98664.80
2024-03-25T08:34:00.386Z,98668.94
2024-03-25T08:36:31.119Z,98671.92
2024-03-25T08:39:01.869Z,98671.06
2024-03-25T08:41:33.926Z,98676.29
2024-03-25T08:44:05.306Z,98678.84
2024-03-25T08:46:36.461Z,98678.55
2024-03-25T08:49:07.652Z,98679.73
2024-03-25T08:51:38.720Z,98675.50
2024-03-25T08:54:09.662Z,98675.66
2024-03-25T08:56:40.654Z,98677.48
2024-03-25T08:59:11.463Z,98674.02
2024-03-25T09:01:42.263Z,98675.55
2024-03-25T09:04:26.029Z,98676.27
2024-03-25T09:06:59.096Z,98678.13
2024-03-25T09:09:43.863Z,98680.77
2024-03-25T09:12:14.933Z,98678.56
2024-03-25T09:14:45.745Z,98677.95
2024-03-25T09:17:17.074Z,98678.55
2024-03-25T09:19:47.953Z,98678.08
2024-03-25T09:22:18.980Z,98677.98
2024-03-25T09:24:50.357Z,98675.02
2024-03-25T09:27:21.406Z,98676.11
2024-03-25T09:29:52.350Z,98675.34
2024-03-25T09:32:24.757Z,98675.23
2024-03-25T09:34:57.006Z,98678.73
2024-03-25T09:37:28.440Z,98677.07
2024-03-25T09:39:59.756Z,98671.22
2024-03-25T09:42:35.666Z,98667.18
2024-03-25T09:45:11.530Z,98669.31
2024-03-25T09:47:44.820Z,98671.80
2024-03-25T09:50:20.471Z,98673.77
2024-03-25T09:52:51.785Z,98675.94
2024-03-25T09:55:22.636Z,98676.44
2024-03-25T09:57:54.156Z,98676.30
2024-03-25T10:00:25.099Z,98674.63
2024-03-25T10:02:55.939Z,98674.35
2024-03-25T10:05:27.460Z,98671.32
2024-03-25T10:07:58.768Z,98672.89
2024-03-25T10:10:29.726Z,98675.90
2024-03-25T10:13:00.867Z,98670.83
2024-03-25T10:15:32.115Z,98667.87
2024-03-25T10:18:03.047Z,98669.97
2024-03-25T10:20:35.634Z,98658.59
2024-03-25T10:23:07.262Z,98656.11
2024-03-25T10:25:38.497Z,98654.30
2024-03-25T10:28:12.336Z,98654.36
2024-03-25T10:30:44.195Z,98649.67
2024-03-25T10:33:15.172Z,98657.89
2024-03-25T10:35:52.180Z,98654.55
2024-03-25T10:38:24.942Z,98646.91
2024-03-25T10:40:59.456Z,98640.69
2024-03-25T10:43:33.042Z,98640.94
2024-03-25T10:46:05.608Z,98635.67
2024-03-25T10:48:39.102Z,98634.24
2024-03-25T10:51:11.533Z,98627.94
2024-03-25T10:53:44.839Z,98627.90
2024-03-25T10:56:17.350Z,98630.78
2024-03-25T10:58:49.933Z,98627.20
2024-03-25T11:01:23.404Z,98623.11
2024-03-25T11:03:54.648Z,98616.10
2024-03-25T11:06:25.660Z,98614.31
2024-03-25T11:09:05.124Z,98605.44
2024-03-25T11:11:36.624Z,98603.63
2024-03-25T11:14:17.288Z,98598.90
2024-03-25T11:16:54.952Z,98591.50
2024-03-25T11:19:30.246Z,98588.84
2024-03-25T11:22:12.347Z,98591.48
2024-03-25T11:24:47.008Z,98589.73
2024-03-25T11:27:23.088Z,98583.12
2024-03-25T11:29:53.832Z,98581.23
2024-03-25T11:32:24.686Z,98584.83
2024-03-25T11:34:55.474Z,98579.98
2024-03-25T11:37:27.028Z,98569.92
2024-03-25T11:40:06.061Z,98556.77
2024-03-25T11:42:37.516Z,98557.93
2024-03-25T11:45:16.261Z,98557.78
2024-03-25T11:47:48.636Z,98546.25
2024-03-25T11:50:21.049Z,98544.41
2024-03-25T11:52:51.971Z,98540.59
2024-03-25T11:55:22.796Z,98529.27
2024-03-25T11:57:59.466Z,98525.11
2024-03-25T12:00:30.342Z,98519.56
2024-03-25T12:03:02.178Z,98515.98
2024-03-25T12:05:33.095Z,98524.66
2024-03-25T12:08:04.181Z,98520.52
2024-03-25T12:10:49.185Z,98511.42
2024-03-25T12:13:21.170Z,98509.79
2024-03-25T12:15:52.289Z,98505.90
2024-03-25T12:18:23.528Z,98505.52
2024-03-25T12:20:54.233Z,98503.13
2024-03-25T12:23:25.107Z,98496.13
2024-03-25T12:25:56.087Z,98495.09
2024-03-25T12:28:27.333Z,98490.15
2024-03-25T12:30:58.561Z,98482.28
2024-03-25T12:33:29.375Z,98476.27
2024-03-25T12:36:00.241Z,98473.04
2024-03-25T12:38:33.307Z,98466.45
2024-03-25T12:41:08.798Z,98473.23
2024-03-25T12:43:44.965Z,98471.20
2024-03-25T12:46:16.584Z,98469.73
2024-03-25T12:48:48.204Z,98464.27
2024-03-25T12:51:19.091Z,98463.75
2024-03-25T12:53:49.885Z,98463.17
2024-03-25T12:56:20.701Z,98462.09
2024-03-25T12:58:51.511Z,98458.46
2024-03-25T13:01:22.315Z,98457.11
2024-03-25T13:03:53.279Z,98454.95
2024-03-25T13:06:24.332Z,98448.23
2024-03-25T13:08:55.226Z,98447.78
2024-03-25T13:11:26.312Z,98449.35
2024-03-25T13:13:57.110Z,98444.77
2024-03-25T13:16:28.583Z,98442.27
2024-03-25T13:18:59.719Z,98436.58
2024-03-25T13:21:30.679Z,98429.24
2024-03-25T13:24:01.669Z,98425.74
2024-03-25T13:26:32.723Z,98419.82
2024-03-25T13:29:04.036Z,98415.23
2024-03-25T13:31:34.907Z,98411.67
2024-03-25T13:34:05.789Z,98404.23
2024-03-25T13:36:36.666Z,98400.73
2024-03-25T13:39:10.067Z,98405.46
2024-03-25T13:41:41.015Z,98403.55
2024-03-25T13:44:11.859Z,98399.16
2024-03-25T13:46:42.594Z,98398.16
2024-03-25T13:49:16.574Z,98390.02
2024-03-25T13:51:47.230Z,98389.64
2024-03-25T13:54:17.919Z,98384.87
2024-03-25T13:56:49.233Z,98377.20
2024-03-25T13:59:21.216Z,98378.36
2024-03-25T14:01:52.654Z,98376.90
2024-03-25T14:04:23.494Z,98373.75
2024-03-25T14:06:54.650Z,98376.38
2024-03-25T14:09:29.411Z,98372.75
2024-03-25T14:12:00.199Z,98367.33
2024-03-25T14:14:31.214Z,98365.59
2024-03-25T14:17:02.248Z,98359.95
2024-03-25T14:19:33.848Z,98360.55
2024-03-25T14:22:04.745Z,98361.38
2024-03-25T14:24:35.644Z,98352.89
2024-03-25T14:27:06.760Z,98356.50
2024-03-25T14:29:37.625Z,98354.52
2024-03-25T14:32:08.596Z,98356.45
2024-03-25T14:34:39.409Z,98350.77
2024-03-25T14:37:28.756Z,98345.58
2024-03-25T14:40:05.930Z,98339.86
2024-03-25T14:42:38.191Z,98335.48
2024-03-25T14:45:10.786Z,98326.81
2024-03-25T14:47:41.660Z,98318.96
2024-03-25T14:50:13.648Z,98320.92
2024-03-25T14:52:44.969Z,98317.65
2024-03-25T14:55:15.946Z,98314.61
2024-03-25T14:57:46.763Z,98313.36
2024-03-25T15:00:19.519Z,98308.27
2024-03-25T15:02:50.542Z,98311.09
2024-03-25T15:05:22.142Z,98302.10
2024-03-25T15:07:53.166Z,98311.25
2024-03-25T15:10:24.107Z,98310.03
2024-03-25T15:12:55.413Z,98304.96
2024-03-25T15:15:26.514Z,98300.34
2024-03-25T15:17:57.595Z,98289.39
2024-03-25T15:20:28.888Z,98283.36
2024-03-25T15:23:00.061Z,98281.69
2024-03-25T15:25:31.327Z,98278.95
2024-03-25T15:28:03.676Z,98277.31
2024-03-25T15:30:41.707Z,98274.01
2024-03-25T15:33:12.835Z,98274.58
2024-03-25T15:35:44.207Z,98267.05
2024-03-25T15:38:15.352Z,98266.98
2024-03-25T15:40:52.353Z,98266.58
2024-03-25T15:43:23.884Z,98266.33
2024-03-25T15:46:00.088Z,98265.52
2024-03-25T15:48:31.147Z,98259.89
2024-03-25T15:51:03.779Z,98251.46
2024-03-25T15:53:34.791Z,98252.14
2024-03-25T15:56:08.316Z,98243.66
2024-03-25T15:58:39.472Z,98239.61
2024-03-25T16:01:10.681Z,98234.25
2024-03-25T16:03:41.826Z,98230.64
2024-03-25T16:06:13.932Z,98234.95
2024-03-25T16:08:45.431Z,98234.54
2024-03-25T16:11:21.286Z,98229.60
2024-03-25T16:13:52.684Z,98228.16
2024-03-25T16:16:23.829Z,98227.08
2024-03-25T16:18:55.206Z,98228.43
2024-03-25T16:21:27.314Z,98224.55
2024-03-25T16:23:58.402Z,98220.64
2024-03-25T16:26:29.440Z,98218.96
2024-03-25T16:29:00.410Z,98224.34
2024-03-25T16:31:32.162Z,98223.67
2024-03-25T16:34:03.212Z,98219.50
2024-03-25T16:36:35.055Z,98214.27
2024-03-25T16:39:06.681Z,98214.41
2024-03-25T16:41:39.355Z,98215.80
2024-03-25T16:44:10.530Z,98213.19
2024-03-25T16:46:41.625Z,98202.88
2024-03-25T16:49:13.530Z,98199.81
2024-03-25T16:51:45.110Z,98193.26
2024-03-25T16:54:16.063Z,98190.14
2024-03-25T16:56:47.039Z,98183.95
2024-03-25T16:59:17.902Z,98177.80
2024-03-25T17:01:48.842Z,98180.44
2024-03-25T17:04:20.339Z,98180.83
2024-03-25T17:06:51.415Z,98175.23
2024-03-25T17:09:22.341Z,98175.65
2024-03-25T17:11:53.635Z,98172.81
2024-03-25T17:14:25.353Z,98175.86
2024-03-25T17:16:57.106Z,98179.42
2024-03-25T17:19:28.379Z,98181.33
2024-03-25T17:22:02.647Z,98181.77
2024-03-25T17:24:33.665Z,98177.70
2024-03-25T17:27:05.555Z,98181.36
2024-03-25T17:29:37.034Z,98181.41
2024-03-25T17:32:08.538Z,98184.21
2024-03-25T17:34:39.389Z,98185.31
2024-03-25T17:37:10.312Z,98182.25
2024-03-25T17:39:41.099Z,98182.50
2024-03-25T17:42:13.939Z,98183.17
2024-03-25T17:44:48.985Z,98180.91
2024-03-25T17:47:20.240Z,98185.48
2024-03-25T17:49:51.114Z,98189.66
2024-03-25T17:52:22.451Z,98186.41
2024-03-25T17:54:53.418Z,98184.09
2024-03-25T17:57:24.429Z,98185.46
2024-03-25T17:59:55.531Z,98180.42
2024-03-25T18:02:26.589Z,98178.61
2024-03-25T18:04:57.815Z,98176.20
2024-03-25T18:07:29.590Z,98178.23
2024-03-25T18:10:00.701Z,98177.02
2024-03-25T18:12:31.619Z,98181.36
2024-03-25T18:15:02.807Z,98175.77
2024-03-25T18:17:34.578Z,98176.16
2024-03-25T18:20:08.055Z,98168.95
2024-03-25T18:22:39.248Z,98172.77
2024-03-25T18:25:11.338Z,98171.49
2024-03-25T18:27:42.874Z,98171.70
2024-03-25T18:30:15.696Z,98168.40
2024-03-25T18:32:47.595Z,98166.04
2024-03-25T18:35:18.730Z,98164.80
2024-03-25T18:37:49.863Z,98162.59
2024-03-25T18:40:22.339Z,98162.47
2024-03-25T18:42:53.287Z,98164.27
2024-03-25T18:45:24.264Z,98163.98
2024-03-25T18:47:55.371Z,98163.32
2024-03-25T18:50:26.614Z,98161.84
2024-03-25T18:52:57.939Z,98155.33
2024-03-25T18:55:29.018Z,98155.27
2024-03-25T18:58:00.295Z,98150.06
2024-03-25T19:00:31.424Z,98152.60
2024-03-25T19:03:02.548Z,98151.34
2024-03-25T19:05:33.594Z,98146.35
2024-03-25T19:08:05.668Z,98151.95
2024-03-25T19:10:36.589Z,98143.88
2024-03-25T19:13:08.197Z,98146.04
2024-03-25T19:15:40.427Z,98135.33
2024-03-25T19:18:11.859Z,98138.27
2024-03-25T19:20:42.830Z,98137.27
2024-03-25T19:23:13.836Z,98131.19
2024-03-25T19:25:44.775Z,98132.94
2024-03-25T19:28:16.076Z,98127.88
2024-03-25T19:30:47.524Z,98123.83
2024-03-25T19:33:18.529Z,98121.17
2024-03-25T19:35:52.602Z,98119.98
2024-03-25T19:38:23.958Z,98115.11
2024-03-25T19:40:55.105Z,98112.99
2024-03-25T19:43:26.444Z,98111.60
2024-03-25T19:45:57.544Z,98108.98
2024-03-25T19:48:29.119Z,98110.20
2024-03-25T19:51:00.032Z,98106.19
2024-03-25T19:53:31.430Z,98108.29
2024-03-25T19:56:05.004Z,98108.81
2024-03-25T19:58:35.969Z,98112.48
2024-03-25T20:01:11.162Z,98111.26
2024-03-25T20:03:42.267Z,98113.52
2024-03-25T20:06:15.720Z,98108.80
2024-03-25T20:08:47.518Z,98108.98
2024-03-25T20:11:18.487Z,98113.17
2024-03-25T20:13:49.369Z,98104.61
2024-03-25T20:16:21.243Z,98106.34
2024-03-25T20:18:52.273Z,98102.32
2024-03-25T20:21:23.279Z,98100.75
2024-03-25T20:23:54.211Z,98102.15
2024-03-25T20:26:25.297Z,98097.95
2024-03-25T20:28:56.388Z,98095.64
2024-03-25T20:31:27.223Z,98099.28
2024-03-25T20:33:58.398Z,98094.92
2024-03-25T20:36:29.379Z,98094.77
2024-03-25T20:39:00.353Z,98096.98
2024-03-25T20:41:31.315Z,98095.27
2024-03-25T20:44:03.964Z,98097.50
2024-03-25T20:46:35.729Z,98096.08
2024-03-25T20:49:08.051Z,98093.95
2024-03-25T20:51:39.466Z,98092.00
2024-03-25T20:54:10.858Z,98087.52
2024-03-25T20:56:41.855Z,98084.77
2024-03-25T20:59:13.007Z,98084.04
2024-03-25T21:01:44.086Z,98084.52
2024-03-25T21:04:15.114Z,98084.78
2024-03-25T21:06:46.662Z,98078.09
2024-03-25T21:09:17.657Z,98068.13
2024-03-25T21:11:48.510Z,98067.06
2024-03-25T21:14:19.826Z,98068.81
2024-03-25T21:16:50.754Z,98069.36
2024-03-25T21:19:23.055Z,98065.90
2024-03-25T21:21:53.913Z,98059.25
2024-03-25T21:24:25.136Z,98060.34
2024-03-25T21:26:56.206Z,98056.86
2024-03-25T21:29:27.174Z,98055.46
2024-03-25T21:31:58.135Z,98052.05
2024-03-25T21:34:29.951Z,98055.30
2024-03-25T21:37:01.148Z,98055.84
2024-03-25T21:39:32.034Z,98049.19
2024-03-25T21:42:03.165Z,98047.19
2024-03-25T21:44:34.123Z,98047.57
2024-03-25T21:47:06.824Z,98046.33
2024-03-25T21:49:37.964Z,98043.89
2024-03-25T21:52:09.752Z,98045.18
2024-03-25T21:54:41.625Z,98041.84
2024-03-25T21:57:12.431Z,98039.55
2024-03-25T21:59:43.429Z,98034.17
2024-03-25T22:02:14.380Z,98034.29
2024-03-25T22:04:49.623Z,98030.92
2024-03-25T22:07:20.422Z,98020.75
2024-03-25T22:09:51.885Z,98021.64
2024-03-25T22:12:22.781Z,98017.89
2024-03-25T22:14:54.566Z,98014.89
2024-03-25T22:17:25.608Z,98014.66
2024-03-25T22:19:57.044Z,98008.38
2024-03-25T22:22:28.255Z,98003.91
2024-03-25T22:24:59.359Z,97999.86
2024-03-25T22:27:30.277Z,97996.91
2024-03-25T22:30:01.626Z,98001.08
2024-03-25T22:32:33.008Z,97998.77
2024-03-25T22:35:03.956Z,97996.48
2024-03-25T22:37:40.241Z,97990.86
2024-03-25T22:40:14.939Z,97993.67
2024-03-25T22:42:46.515Z,97985.70
2024-03-25T22:45:17.770Z,97982.17
2024-03-25T22:47:48.633Z,97980.42
2024-03-25T22:50:19.735Z,97980.45
2024-03-25T22:52:50.751Z,97980.77
2024-03-25T22:55:22.361Z,97979.04
2024-03-25T22:57:53.233Z,97979.58
2024-03-25T23:00:24.176Z,97976.76
2024-03-25T23:02:55.011Z,97980.02
2024-03-25T23:05:25.949Z,97980.54
2024-03-25T23:07:56.769Z,97978.32
2024-03-25T23:10:27.615Z,97970.86
2024-03-25T23:12:58.707Z,97971.70
2024-03-25T23:15:29.623Z,97973.48
2024-03-25T23:18:00.491Z,97968.89
2024-03-25T23:20:31.900Z,97969.73
2024-03-25T23:23:03.068Z,97964.56
2024-03-25T23:25:33.970Z,97961.58
2024-03-25T23:28:05.256Z,97962.38
2024-03-25T23:30:36.724Z,97958.14
2024-03-25T23:33:08.166Z,97953.41
2024-03-25T23:35:39.093Z,97950.61
2024-03-25T23:38:10.014Z,97952.52
2024-03-25T23:40:40.968Z,97954.27
2024-03-25T23:43:13.214Z,97953.70
2024-03-25T23:45:44.204Z,97948.86
2024-03-25T23:48:15.017Z,97953.17
2024-03-25T23:50:46.731Z,97947.08
2024-03-25T23:53:18.191Z,97949.30
2024-03-25T23:55:49.583Z,97945.23
2024-03-25T23:58:20.459Z,97944.16
